createdAt,value
2019-01-09T00:01:33.850Z,4.33
2019-01-09T00:04:03.641Z,4.13
2019-01-09T00:06:33.462Z,4.21
2019-01-09T00:09:04.908Z,4.31
2019-01-09T00:11:34.771Z,4.31
2019-01-09T00:14:04.770Z,4.33
2019-01-09T00:16:35.563Z,4.10
2019-01-09T00:19:05.343Z,4.19
2019-01-09T00:21:35.094Z,4.18
2019-01-09T00:24:04.989Z,4.14
2019-01-09T00:26:35.010Z,4.29
2019-01-09T00:29:04.774Z,4.35
2019-01-09T00:31:34.543Z,4.21
2019-01-09T00:34:04.691Z,4.26
2019-01-09T00:36:34.451Z,4.22
2019-01-09T02:55:39.932Z,3.99
2019-01-09T02:58:09.558Z,4.00
2019-01-09T03:00:39.189Z,3.94
2019-01-09T03:03:08.746Z,3.82
2019-01-09T03:05:38.326Z,3.98
2019-01-09T03:08:07.888Z,4.05
2019-01-09T03:10:37.483Z,4.16
2019-01-09T03:13:07.068Z,4.01
2019-01-09T03:15:36.776Z,3.90
2019-01-09T03:18:06.406Z,3.83
2019-01-09T03:20:36.257Z,3.97
2019-01-09T03:23:05.805Z,3.94
2019-01-09T03:25:35.367Z,3.83
2019-01-09T03:28:05.023Z,4.09
2019-01-09T03:30:34.584Z,3.91
2019-01-09T03:33:04.203Z,4.12
2019-01-09T03:35:34.139Z,3.85
2019-01-09T03:38:03.706Z,4.00
2019-01-09T03:40:33.259Z,4.08
2019-01-09T03:43:02.834Z,3.99
2019-01-09T03:45:32.374Z,4.02
2019-01-09T03:48:02.001Z,4.14
2019-01-09T03:50:31.574Z,4.10
2019-01-09T03:53:01.125Z,4.12
2019-01-09T03:55:30.764Z,4.05
2019-01-09T03:58:00.342Z,4.14
2019-01-09T04:00:29.917Z,4.14
2019-01-09T04:02:59.538Z,4.09
2019-01-09T04:05:29.093Z,4.06
2019-01-09T04:07:58.709Z,4.04
2019-01-09T04:10:28.257Z,4.02
2019-01-09T04:12:57.844Z,4.08
2019-01-09T04:15:27.392Z,3.83
2019-01-09T04:17:56.969Z,3.91
2019-01-09T04:20:26.522Z,3.83
2019-01-09T04:22:56.050Z,3.86
2019-01-09T04:25:25.626Z,3.96
2019-01-09T04:27:55.175Z,3.88
2019-01-09T04:30:24.741Z,3.86
2019-01-09T04:32:54.281Z,3.97
2019-01-09T04:35:23.850Z,4.07
2019-01-09T04:37:53.449Z,3.95
2019-01-09T04:40:23.015Z,3.86
2019-01-09T04:42:52.593Z,3.95
2019-01-09T04:45:22.191Z,4.05
2019-01-09T04:47:51.757Z,3.82
2019-01-09T04:50:21.316Z,3.87
2019-01-09T04:52:50.882Z,3.93
2019-01-09T04:55:20.446Z,3.80
2019-01-09T04:57:50.033Z,3.90
2019-01-09T05:00:19.731Z,3.88
2019-01-09T05:02:49.365Z,3.78
2019-01-09T05:05:18.960Z,3.89
2019-01-09T05:07:48.593Z,3.86
2019-01-09T05:10:18.161Z,3.81
2019-01-09T05:12:47.750Z,3.93
2019-01-09T05:15:17.300Z,3.81
2019-01-09T05:17:46.875Z,3.91
2019-01-09T05:20:16.451Z,3.79
2019-01-09T05:22:46.007Z,3.83
2019-01-09T05:25:15.581Z,3.84
2019-01-09T05:27:45.139Z,3.80
2019-01-09T05:30:14.793Z,3.82
2019-01-09T05:32:44.380Z,3.83
2019-01-09T05:35:13.924Z,3.73
2019-01-09T05:37:43.510Z,3.76
2019-01-09T05:40:13.073Z,3.86
2019-01-09T05:42:42.680Z,3.88
2019-01-09T05:45:12.282Z,3.86
2019-01-09T05:47:41.906Z,3.81
2019-01-09T05:50:11.561Z,3.78
2019-01-09T05:52:41.111Z,3.86
2019-01-09T05:55:10.779Z,3.79
2019-01-09T05:57:40.357Z,3.79
2019-01-09T06:00:10.145Z,3.85
2019-01-09T06:02:39.735Z,3.77
2019-01-09T06:05:09.405Z,3.84
2019-01-09T06:07:39.040Z,3.82
2019-01-09T06:10:08.689Z,3.90
2019-01-09T06:12:38.286Z,3.97
2019-01-09T06:15:08.129Z,4.00
2019-01-09T06:17:37.696Z,3.98
2019-01-09T06:20:08.252Z,3.93
2019-01-09T06:22:38.037Z,3.83
2019-01-09T06:25:07.817Z,3.92
2019-01-09T06:27:37.582Z,3.90
2019-01-09T06:30:07.282Z,3.88
2019-01-09T06:32:36.864Z,3.95
2019-01-09T06:35:06.488Z,3.95
2019-01-09T06:37:36.066Z,3.95
2019-01-09T06:40:05.909Z,4.06
2019-01-09T06:42:35.511Z,3.93
2019-01-09T06:45:05.182Z,3.91
2019-01-09T06:47:34.772Z,4.04
2019-01-09T06:50:07.468Z,3.89
2019-01-09T06:52:37.088Z,3.96
2019-01-09T06:55:06.723Z,3.97
2019-01-09T06:57:36.322Z,3.99
2019-01-09T07:00:07.137Z,3.99
2019-01-09T07:02:36.758Z,3.92
2019-01-09T07:05:06.765Z,3.91
2019-01-09T07:07:36.437Z,4.05
2019-01-09T07:10:06.425Z,3.91
2019-01-09T07:12:36.001Z,3.99
2019-01-09T07:15:11.589Z,3.92
2019-01-09T07:17:39.120Z,4.03
2019-01-09T07:20:08.757Z,3.89
2019-01-09T07:22:38.352Z,3.99
2019-01-09T07:25:07.994Z,3.98
2019-01-09T07:27:37.644Z,3.89
2019-01-09T07:30:08.232Z,3.99
2019-01-09T07:32:37.781Z,4.01
2019-01-09T07:35:07.498Z,3.97
2019-01-09T07:37:44.888Z,4.02
2019-01-09T07:40:08.462Z,4.04
2019-01-09T07:42:38.052Z,4.00
2019-01-09T07:45:11.530Z,4.02
2019-01-09T07:47:41.082Z,3.86
2019-01-09T07:50:10.750Z,3.86
2019-01-09T07:52:40.299Z,3.86
2019-01-09T07:55:09.939Z,3.82
2019-01-09T07:57:39.549Z,3.86
2019-01-09T08:00:10.670Z,3.85
2019-01-09T08:02:40.512Z,3.80
2019-01-09T08:05:10.098Z,3.76
2019-01-09T08:07:39.652Z,3.79
2019-01-09T08:10:10.292Z,3.82
2019-01-09T08:12:39.852Z,3.69
2019-01-09T08:15:10.028Z,3.71
2019-01-09T08:17:39.685Z,3.66
2019-01-09T08:20:09.756Z,3.57
2019-01-09T08:22:39.370Z,3.65
2019-01-09T08:25:08.984Z,3.55
2019-01-09T08:27:38.602Z,3.58
2019-01-09T08:30:09.998Z,3.57
2019-01-09T08:32:39.674Z,3.50
2019-01-09T08:35:09.330Z,3.54
2019-01-09T08:37:38.916Z,3.44
2019-01-09T08:40:09.567Z,3.37
2019-01-09T08:42:39.301Z,3.53
2019-01-09T08:45:09.102Z,3.59
2019-01-09T08:47:38.776Z,3.65
2019-01-09T08:50:09.363Z,3.48
2019-01-09T08:52:38.992Z,3.48
2019-01-09T08:55:09.284Z,3.46
2019-01-09T08:57:39.554Z,3.37
2019-01-09T09:00:10.929Z,3.35
2019-01-09T09:02:40.588Z,3.36
2019-01-09T09:05:10.316Z,3.38
2019-01-09T09:07:40.179Z,3.51
2019-01-09T09:10:12.012Z,3.51
2019-01-09T09:12:41.841Z,3.60
2019-01-09T09:15:13.214Z,3.46
2019-01-09T09:17:42.915Z,3.50
2019-01-09T09:20:12.710Z,3.57
2019-01-09T09:22:42.344Z,3.43
2019-01-09T09:25:11.990Z,3.57
2019-01-09T09:27:41.570Z,3.64
2019-01-09T09:30:12.213Z,3.72
2019-01-09T09:32:41.836Z,3.65
2019-01-09T09:35:11.484Z,3.36
2019-01-09T09:37:41.130Z,3.41
2019-01-09T09:40:13.524Z,3.47
2019-01-09T09:42:43.163Z,3.65
2019-01-09T09:45:12.968Z,3.49
2019-01-09T09:47:42.635Z,3.56
2019-01-09T09:50:13.356Z,3.54
2019-01-09T09:52:42.982Z,3.54
2019-01-09T09:55:13.254Z,3.46
2019-01-09T09:57:43.084Z,3.59
2019-01-09T10:00:16.389Z,3.49
2019-01-09T10:02:46.054Z,3.49
2019-01-09T10:05:15.720Z,3.54
2019-01-09T10:07:45.412Z,3.79
2019-01-09T10:10:15.894Z,3.77
2019-01-09T10:12:45.503Z,3.73
2019-01-09T10:15:15.281Z,3.68
2019-01-09T10:17:44.940Z,3.64
2019-01-09T10:20:15.088Z,3.52
2019-01-09T10:22:45.426Z,3.75
2019-01-09T10:25:15.108Z,3.78
2019-01-09T10:27:44.719Z,3.60
2019-01-09T10:30:16.541Z,3.60
2019-01-09T10:32:46.134Z,3.63
2019-01-09T10:35:15.922Z,3.66
2019-01-09T10:37:46.614Z,3.76
2019-01-09T10:40:17.486Z,3.71
2019-01-09T10:42:47.161Z,3.80
2019-01-09T10:45:19.045Z,3.99
2019-01-09T10:47:49.066Z,3.78
2019-01-09T10:50:18.845Z,3.83
2019-01-09T10:52:48.744Z,3.85
2019-01-09T10:55:19.302Z,3.72
2019-01-09T10:57:49.021Z,3.70
2019-01-09T11:00:24.521Z,3.87
2019-01-09T11:02:54.278Z,3.88
2019-01-09T11:05:24.416Z,3.97
2019-01-09T11:07:54.115Z,3.61
2019-01-09T11:10:23.867Z,3.67
2019-01-09T11:12:53.519Z,3.86
2019-01-09T11:15:23.267Z,3.62
2019-01-09T11:17:52.941Z,3.56
2019-01-09T11:20:22.662Z,3.64
2019-01-09T11:23:00.322Z,3.57
2019-01-09T11:25:30.118Z,3.50
2019-01-09T11:27:59.811Z,3.58
2019-01-09T11:30:29.498Z,3.70
2019-01-09T11:32:59.313Z,3.80
2019-01-09T11:35:28.973Z,3.68
2019-01-09T11:37:58.701Z,3.63
2019-01-09T11:40:28.447Z,3.76
2019-01-09T11:42:58.171Z,3.68
2019-01-09T11:45:27.897Z,3.71
2019-01-09T11:47:57.575Z,3.62
2019-01-09T11:50:27.216Z,3.74
2019-01-09T11:52:56.915Z,3.85
2019-01-09T11:55:26.817Z,3.80
2019-01-09T11:57:56.394Z,3.74
2019-01-09T12:00:28.069Z,3.77
2019-01-09T12:02:57.816Z,3.77
2019-01-09T12:05:27.492Z,3.69
2019-01-09T12:07:57.184Z,3.77
2019-01-09T12:10:30.152Z,3.75
2019-01-09T12:12:58.378Z,3.80
2019-01-09T12:15:28.037Z,3.88
2019-01-09T12:17:57.619Z,3.85
2019-01-09T12:20:27.203Z,3.94
2019-01-09T12:22:56.823Z,3.97
2019-01-09T12:25:26.509Z,3.91
2019-01-09T12:27:56.106Z,3.86
2019-01-09T12:30:27.773Z,3.83
2019-01-09T12:32:57.684Z,4.00
2019-01-09T12:35:27.445Z,4.07
2019-01-09T12:37:57.013Z,4.00
2019-01-09T12:40:26.607Z,3.80
2019-01-09T12:42:56.416Z,4.03
2019-01-09T12:45:25.938Z,4.06
2019-01-09T12:47:55.564Z,3.86
2019-01-09T12:50:26.025Z,3.77
2019-01-09T12:52:55.696Z,3.97
2019-01-09T12:55:25.427Z,3.81
2019-01-09T12:57:54.996Z,3.81
2019-01-09T13:00:26.817Z,3.93
2019-01-09T13:02:56.575Z,3.78
2019-01-09T13:05:26.237Z,3.87
2019-01-09T13:07:55.844Z,3.78
2019-01-09T13:10:25.571Z,3.60
2019-01-09T13:12:55.163Z,3.72
2019-01-09T13:15:24.831Z,3.86
2019-01-09T13:17:54.510Z,3.87
2019-01-09T13:20:31.770Z,3.83
2019-01-09T13:23:01.515Z,3.72
2019-01-09T13:25:31.151Z,3.58
2019-01-09T13:28:00.769Z,3.43
2019-01-09T13:30:30.439Z,3.68
2019-01-09T13:33:00.098Z,3.61
2019-01-09T13:35:29.811Z,3.64
2019-01-09T13:38:17.096Z,3.86
2019-01-09T13:40:46.762Z,3.72
2019-01-09T13:43:25.607Z,3.63
2019-01-09T13:45:55.348Z,3.63
2019-01-09T13:48:25.019Z,3.70
2019-01-09T13:50:54.717Z,3.64
2019-01-09T13:53:24.377Z,3.40
2019-01-09T13:55:53.952Z,3.41
2019-01-09T13:58:23.631Z,3.36
2019-01-09T14:00:53.296Z,3.34
2019-01-09T14:03:22.902Z,3.42
2019-01-09T14:05:52.500Z,3.34
2019-01-09T14:08:22.142Z,3.23
2019-01-09T14:10:51.817Z,3.24
2019-01-09T14:13:21.415Z,3.42
2019-01-09T14:15:51.037Z,3.39
2019-01-09T14:18:20.616Z,3.45
2019-01-09T14:20:50.412Z,3.64
2019-01-09T14:23:20.019Z,3.57
2019-01-09T14:25:49.703Z,3.58
2019-01-09T14:28:19.254Z,3.56
2019-01-09T14:30:48.949Z,3.63
2019-01-09T14:33:18.501Z,3.65
2019-01-09T14:35:48.165Z,3.43
2019-01-09T14:38:17.788Z,3.56
2019-01-09T14:40:47.430Z,3.53
2019-01-09T14:43:17.035Z,3.51
2019-01-09T14:45:46.666Z,3.73
2019-01-09T14:48:16.318Z,3.70
2019-01-09T14:50:47.603Z,3.53
2019-01-09T14:53:17.457Z,3.67
2019-01-09T14:55:47.107Z,3.57
2019-01-09T14:58:16.768Z,3.65
2019-01-09T15:00:49.953Z,3.62
2019-01-09T15:03:19.671Z,3.71
2019-01-09T15:05:49.312Z,3.81
2019-01-09T15:08:18.854Z,3.85
2019-01-09T15:10:48.542Z,3.80
2019-01-09T15:13:18.197Z,4.04
2019-01-09T15:15:47.880Z,3.80
2019-01-09T15:18:17.529Z,3.79
2019-01-09T15:20:47.334Z,3.85
2019-01-09T15:23:17.176Z,3.76
2019-01-09T15:25:46.854Z,3.74
2019-01-09T15:28:16.493Z,3.64
2019-01-09T15:30:46.113Z,3.78
2019-01-09T15:33:15.733Z,3.71
2019-01-09T15:35:45.432Z,3.73
2019-01-09T15:38:15.027Z,3.73
2019-01-09T15:40:44.601Z,3.95
2019-01-09T15:43:14.222Z,3.86
2019-01-09T15:45:43.796Z,3.77
2019-01-09T15:48:13.472Z,3.71
2019-01-09T15:50:43.147Z,3.76
2019-01-09T15:53:12.833Z,3.68
2019-01-09T15:55:42.408Z,3.73
2019-01-09T15:58:12.001Z,3.79
2019-01-09T16:00:44.206Z,3.71
2019-01-09T16:03:13.894Z,3.69
2019-01-09T16:05:45.670Z,3.90
2019-01-09T16:08:15.034Z,3.77
2019-01-09T16:10:44.665Z,3.58
2019-01-09T16:13:14.268Z,3.58
2019-01-09T16:15:43.842Z,3.60
2019-01-09T16:18:13.526Z,3.62
2019-01-09T16:20:43.224Z,3.67
2019-01-09T16:23:12.865Z,3.59
2019-01-09T16:25:42.442Z,3.63
2019-01-09T16:28:12.036Z,3.64
2019-01-09T16:30:49.656Z,3.64
2019-01-09T16:33:19.282Z,3.51
2019-01-09T16:35:48.897Z,3.71
2019-01-09T16:38:18.474Z,3.40
2019-01-09T16:40:48.072Z,3.58
2019-01-09T16:43:17.683Z,3.48
2019-01-09T16:45:47.413Z,3.62
2019-01-09T16:48:17.005Z,3.58
2019-01-09T16:50:46.657Z,3.61
2019-01-09T16:53:16.257Z,3.58
2019-01-09T16:55:45.865Z,3.46
2019-01-09T16:58:15.604Z,3.39
2019-01-09T17:00:45.371Z,3.52
2019-01-09T17:03:14.988Z,3.41
2019-01-09T17:05:44.666Z,3.42
2019-01-09T17:08:14.346Z,3.35
2019-01-09T17:10:44.204Z,3.39
2019-01-09T17:13:13.775Z,3.41
2019-01-09T17:15:43.379Z,3.45
2019-01-09T17:18:13.021Z,3.57
2019-01-09T17:20:42.628Z,3.36
2019-01-09T17:23:12.335Z,3.56
2019-01-09T17:25:41.940Z,3.52
2019-01-09T17:28:12.075Z,3.69
2019-01-09T17:30:41.858Z,3.54
2019-01-09T17:33:11.489Z,3.52
2019-01-09T17:35:41.149Z,3.61
2019-01-09T17:38:10.842Z,3.56
2019-01-09T17:40:41.396Z,3.65
2019-01-09T17:43:11.098Z,3.50
2019-01-09T17:45:40.902Z,3.58
2019-01-09T17:48:10.500Z,3.44
2019-01-09T17:50:40.611Z,3.50
2019-01-09T17:53:10.262Z,3.46
2019-01-09T17:55:39.904Z,3.57
2019-01-09T17:58:09.541Z,3.49
2019-01-09T18:00:41.421Z,3.67
2019-01-09T18:03:11.158Z,3.46
2019-01-09T18:05:40.828Z,3.39
2019-01-09T18:08:11.193Z,3.40
2019-01-09T18:10:49.769Z,3.49
2019-01-09T18:13:12.483Z,3.49
2019-01-09T18:15:42.190Z,3.48
2019-01-09T18:18:11.885Z,3.40
2019-01-09T18:20:41.575Z,3.53
2019-01-09T18:23:11.285Z,3.52
2019-01-09T18:26:10.284Z,3.46
2019-01-09T18:28:39.969Z,3.48
2019-01-09T18:32:12.335Z,3.57
2019-01-09T18:35:01.815Z,3.43
2019-01-09T18:37:57.772Z,3.58
2019-01-09T18:40:59.284Z,3.54
2019-01-09T18:43:59.476Z,3.39
2019-01-09T18:46:58.241Z,3.46
2019-01-09T18:50:09.449Z,3.52
2019-01-09T18:53:00.120Z,3.43
2019-01-09T18:55:29.811Z,3.55
2019-01-09T18:57:59.499Z,3.72
2019-01-09T19:00:29.216Z,3.54
2019-01-09T19:02:58.809Z,3.43
2019-01-09T19:05:28.577Z,3.47
2019-01-09T19:07:58.265Z,3.48
2019-01-09T19:10:28.199Z,3.56
2019-01-09T19:12:57.973Z,3.55
2019-01-09T19:15:27.627Z,3.63
2019-01-09T19:17:57.294Z,3.57
2019-01-09T19:20:26.967Z,3.52
2019-01-09T19:22:56.700Z,3.53
2019-01-09T19:25:26.428Z,3.49
2019-01-09T19:27:56.156Z,3.44
2019-01-09T19:30:30.359Z,3.56
2019-01-09T19:33:00.468Z,3.53
2019-01-09T19:35:30.112Z,3.44
2019-01-09T19:37:59.729Z,3.58
2019-01-09T19:40:29.385Z,3.61
2019-01-09T19:42:59.077Z,3.59
2019-01-09T19:45:28.867Z,3.61
2019-01-09T19:47:58.503Z,3.58
2019-01-09T19:50:28.274Z,3.75
2019-01-09T19:52:57.892Z,3.48
2019-01-09T19:55:28.067Z,3.51
2019-01-09T19:57:57.753Z,3.46
2019-01-09T20:00:27.450Z,3.54
2019-01-09T20:02:57.539Z,3.44
2019-01-09T20:05:27.311Z,3.46
2019-01-09T20:07:57.720Z,3.47
2019-01-09T20:10:27.966Z,3.71
2019-01-09T20:12:57.640Z,3.57
2019-01-09T20:15:27.357Z,3.42
2019-01-09T20:17:57.168Z,3.49
2019-01-09T20:20:26.906Z,3.54
2019-01-09T20:22:56.479Z,3.50
2019-01-09T20:25:26.208Z,3.52
2019-01-09T20:27:55.969Z,3.47
2019-01-09T20:30:27.864Z,3.41
2019-01-09T20:32:57.655Z,3.53
2019-01-09T20:35:27.626Z,3.43
2019-01-09T20:37:57.405Z,3.42
2019-01-09T20:40:27.319Z,3.56
2019-01-09T20:42:57.111Z,3.56
2019-01-09T20:45:26.785Z,3.44
2019-01-09T20:47:56.553Z,3.42
2019-01-09T20:50:28.680Z,3.50
2019-01-09T20:52:58.442Z,3.51
2019-01-09T20:55:28.133Z,3.40
2019-01-09T20:57:57.857Z,3.38
2019-01-09T21:00:29.224Z,3.36
2019-01-09T21:03:02.100Z,3.48
2019-01-09T21:05:37.499Z,3.64
2019-01-09T21:08:07.737Z,3.60
2019-01-09T21:10:37.461Z,3.42
2019-01-09T21:13:07.292Z,3.47
2019-01-09T21:15:37.123Z,3.43
2019-01-09T21:18:06.957Z,3.57
2019-01-09T21:20:36.534Z,3.48
2019-01-09T21:23:06.255Z,3.43
2019-01-09T21:25:35.948Z,3.46
2019-01-09T21:28:06.052Z,3.46
2019-01-09T21:30:35.818Z,3.44
2019-01-09T21:33:05.674Z,3.41
2019-01-09T21:35:35.370Z,3.34
2019-01-09T21:38:05.161Z,3.32
2019-01-09T21:40:34.867Z,3.37
2019-01-09T21:43:04.473Z,3.36
2019-01-09T21:45:34.115Z,3.29
2019-01-09T21:48:03.919Z,3.40
2019-01-09T21:50:33.655Z,3.35
2019-01-09T21:53:03.418Z,3.40
2019-01-09T21:55:33.427Z,3.16
2019-01-09T21:58:03.032Z,3.41
2019-01-09T22:00:35.848Z,3.28
2019-01-09T22:03:05.624Z,3.23
2019-01-09T22:05:35.351Z,3.27
2019-01-09T22:08:05.061Z,3.25
2019-01-09T22:10:36.266Z,3.24
2019-01-09T22:13:07.050Z,3.17
2019-01-09T22:15:36.667Z,3.19
2019-01-09T22:18:06.372Z,3.15
2019-01-09T22:20:36.101Z,3.06
2019-01-09T22:23:05.771Z,3.19
2019-01-09T22:25:35.422Z,3.18
2019-01-09T22:28:05.183Z,3.25
2019-01-09T22:30:34.914Z,3.16
2019-01-09T22:33:04.707Z,3.17
2019-01-09T22:35:41.325Z,3.19
2019-01-09T22:38:05.783Z,3.30
2019-01-09T22:40:35.478Z,3.13
2019-01-09T22:43:05.277Z,3.22
2019-01-09T22:45:34.936Z,3.07
2019-01-09T22:48:04.776Z,3.05
2019-01-09T22:50:34.471Z,3.05
2019-01-09T22:53:04.134Z,3.06
2019-01-09T22:55:33.845Z,3.05
2019-01-09T22:58:03.511Z,3.08
2019-01-09T23:00:54.908Z,3.02
2019-01-09T23:03:24.746Z,3.00
2019-01-09T23:05:54.485Z,3.04
2019-01-09T23:08:24.033Z,3.00
2019-01-09T23:10:55.180Z,3.03
2019-01-09T23:13:25.047Z,3.15
2019-01-09T23:15:54.753Z,3.13
2019-01-09T23:18:24.421Z,3.20
2019-01-09T23:20:54.024Z,3.36
2019-01-09T23:23:26.031Z,3.01
2019-01-09T23:25:56.510Z,3.04
2019-01-09T23:28:37.286Z,3.35
2019-01-09T23:31:13.168Z,3.10
2019-01-09T23:33:50.798Z,3.31
2019-01-09T23:36:23.010Z,3.26
2019-01-09T23:38:53.333Z,3.38
2019-01-09T23:41:23.031Z,3.21
2019-01-09T23:43:52.699Z,3.08
2019-01-09T23:46:22.319Z,3.09
2019-01-09T23:48:51.954Z,3.25
2019-01-09T23:51:21.564Z,3.06
2019-01-09T23:53:51.216Z,3.11
2019-01-09T23:56:20.887Z,3.10
2019-01-09T23:58:50.497Z,3.09
